createdAt,value
2022-11-17T00:00:28.366Z,95.24
2022-11-17T00:01:28.361Z,95.24
2022-11-17T00:02:28.516Z,95.14
2022-11-17T00:03:28.346Z,95.14
2022-11-17T00:04:28.317Z,95.14
2022-11-17T00:05:28.310Z,95.14
2022-11-17T00:06:28.288Z,94.99
2022-11-17T00:07:28.396Z,94.89
2022-11-17T00:08:28.258Z,94.78
2022-11-17T00:09:28.267Z,94.48
2022-11-17T00:10:28.228Z,94.37
2022-11-17T00:11:28.225Z,94.27
2022-11-17T00:12:32.674Z,94.27
2022-11-17T00:13:28.208Z,94.27
2022-11-17T00:14:28.192Z,94.27
2022-11-17T00:15:28.177Z,94.27
2022-11-17T00:16:28.157Z,94.07
2022-11-17T00:17:28.168Z,94.07
2022-11-17T00:18:28.129Z,93.96
2022-11-17T00:19:28.158Z,93.86
2022-11-17T00:20:28.106Z,93.86
2022-11-17T00:21:28.098Z,93.86
2022-11-17T00:22:28.089Z,93.86
2022-11-17T00:23:28.101Z,93.76
2022-11-17T00:24:28.048Z,93.76
2022-11-17T00:25:28.037Z,93.76
2022-11-17T00:26:28.024Z,93.76
2022-11-17T00:27:28.042Z,93.66
2022-11-17T00:28:27.998Z,93.45
2022-11-17T00:29:27.994Z,93.35
2022-11-17T00:30:27.975Z,93.35
2022-11-17T00:31:27.978Z,93.35
2022-11-17T00:32:27.969Z,93.35
2022-11-17T00:33:27.939Z,93.25
2022-11-17T00:34:27.909Z,93.25
2022-11-17T00:35:27.910Z,93.35
2022-11-17T00:36:27.899Z,93.25
2022-11-17T00:37:27.907Z,93.25
2022-11-17T00:38:27.860Z,93.25
2022-11-17T00:39:27.858Z,93.15
2022-11-17T00:40:27.843Z,93.15
2022-11-17T00:41:27.832Z,93.15
2022-11-17T00:42:27.840Z,93.15
2022-11-17T00:43:27.808Z,93.15
2022-11-17T00:44:27.789Z,93.04
2022-11-17T00:45:27.778Z,93.04
2022-11-17T00:46:27.763Z,93.04
2022-11-17T00:47:27.770Z,92.94
2022-11-17T00:48:27.782Z,92.94
2022-11-17T00:49:27.766Z,92.94
2022-11-17T00:50:27.700Z,92.83
2022-11-17T00:51:27.696Z,92.83
2022-11-17T00:52:27.690Z,92.83
2022-11-17T00:53:27.676Z,92.74
2022-11-17T00:54:27.704Z,92.74
2022-11-17T00:55:27.708Z,92.74
2022-11-17T00:56:27.642Z,92.63
2022-11-17T00:57:27.641Z,92.53
2022-11-17T00:58:27.601Z,92.43
2022-11-17T00:59:27.599Z,92.32
2022-11-17T01:00:27.586Z,92.32
2022-11-17T01:01:27.627Z,92.22
2022-11-17T01:02:27.561Z,92.02
2022-11-17T01:03:27.561Z,91.91
2022-11-17T01:04:27.530Z,91.91
2022-11-17T01:05:32.681Z,92.12
2022-11-17T01:06:28.499Z,92.12
2022-11-17T01:07:27.632Z,92.02
2022-11-17T01:08:27.489Z,91.91
2022-11-17T01:09:27.451Z,92.02
2022-11-17T01:10:27.459Z,92.02
2022-11-17T01:11:27.431Z,92.12
2022-11-17T01:12:27.430Z,92.12
2022-11-17T01:13:27.434Z,91.82
2022-11-17T01:14:27.399Z,91.91
2022-11-17T01:15:27.381Z,92.02
2022-11-17T01:16:27.360Z,92.02
2022-11-17T01:17:27.351Z,92.02
2022-11-17T01:18:27.351Z,91.91
2022-11-17T01:19:27.340Z,91.91
2022-11-17T01:20:27.332Z,91.71
2022-11-17T01:21:27.300Z,91.50
2022-11-17T01:22:27.296Z,91.71
2022-11-17T01:23:27.299Z,91.71
2022-11-17T01:24:27.261Z,91.82
2022-11-17T01:25:27.252Z,91.82
2022-11-17T01:26:27.232Z,91.82
2022-11-17T01:27:27.221Z,91.91
2022-11-17T01:28:27.231Z,92.12
2022-11-17T01:29:27.192Z,92.22
2022-11-17T01:30:27.180Z,92.32
2022-11-17T01:31:27.169Z,92.43
2022-11-17T01:32:27.167Z,92.53
2022-11-17T01:33:27.167Z,92.53
2022-11-17T01:34:27.132Z,92.53
2022-11-17T01:35:27.117Z,92.74
2022-11-17T01:36:27.108Z,92.74
2022-11-17T01:37:27.111Z,92.83
2022-11-17T01:38:27.088Z,92.94
2022-11-17T01:39:27.061Z,93.04
2022-11-17T01:40:27.050Z,93.15
2022-11-17T01:41:27.030Z,93.25
2022-11-17T01:42:27.235Z,93.25
2022-11-17T01:43:27.020Z,93.25
2022-11-17T01:44:27.001Z,93.35
2022-11-17T01:45:27.103Z,93.45
2022-11-17T01:46:26.962Z,93.66
2022-11-17T01:47:26.953Z,93.76
2022-11-17T01:48:26.971Z,93.66
2022-11-17T01:49:26.933Z,93.66
2022-11-17T01:50:26.922Z,93.66
2022-11-17T01:51:26.901Z,93.76
2022-11-17T01:52:26.899Z,93.86
2022-11-17T01:53:26.892Z,93.96
2022-11-17T01:54:26.868Z,93.86
2022-11-17T01:55:26.853Z,93.66
2022-11-17T01:56:26.841Z,93.55
2022-11-17T01:57:26.841Z,93.45
2022-11-17T01:58:26.890Z,93.35
2022-11-17T01:59:26.801Z,93.25
2022-11-17T02:00:26.801Z,93.25
2022-11-17T02:01:26.791Z,93.25
2022-11-17T02:02:26.772Z,93.25
2022-11-17T02:03:26.752Z,93.35
2022-11-17T02:04:26.767Z,93.55
2022-11-17T02:05:26.722Z,93.45
2022-11-17T02:06:26.712Z,93.55
2022-11-17T02:07:27.019Z,93.66
2022-11-17T02:08:26.679Z,93.76
2022-11-17T02:10:20.486Z,93.76
2022-11-17T02:11:20.894Z,93.76
2022-11-17T02:12:20.458Z,93.76
2022-11-17T02:13:20.452Z,93.76
2022-11-17T02:14:20.437Z,93.86
2022-11-17T02:15:20.414Z,94.07
2022-11-17T02:16:20.426Z,94.07
2022-11-17T02:17:20.386Z,93.96
2022-11-17T02:18:20.384Z,94.07
2022-11-17T02:19:20.357Z,94.07
2022-11-17T02:20:20.356Z,94.07
2022-11-17T02:21:20.346Z,94.17
2022-11-17T02:22:20.332Z,94.27
2022-11-17T02:23:20.328Z,94.27
2022-11-17T02:24:20.297Z,94.37
2022-11-17T02:25:25.739Z,94.62
2022-11-17T02:26:21.298Z,94.73
2022-11-17T02:27:20.258Z,94.83
2022-11-17T02:28:20.261Z,94.93
2022-11-17T02:29:20.225Z,95.03
2022-11-17T02:30:20.216Z,95.03
2022-11-17T02:31:20.206Z,95.03
2022-11-17T02:32:20.206Z,95.03
2022-11-17T02:33:20.176Z,94.83
2022-11-17T02:34:20.176Z,94.83
2022-11-17T02:35:20.147Z,94.93
2022-11-17T02:36:20.138Z,94.93
2022-11-17T02:37:20.146Z,95.03
2022-11-17T02:38:20.109Z,95.03
2022-11-17T02:39:20.094Z,95.03
2022-11-17T02:40:20.086Z,94.99
2022-11-17T02:41:20.066Z,94.99
2022-11-17T02:42:20.080Z,94.99
2022-11-17T02:43:20.055Z,94.99
2022-11-17T02:44:20.049Z,95.09
2022-11-17T02:45:20.017Z,95.20
2022-11-17T02:46:20.006Z,94.89
2022-11-17T02:47:20.006Z,94.78
2022-11-17T02:48:19.979Z,94.78
2022-11-17T02:49:19.967Z,94.89
2022-11-17T02:50:23.993Z,94.99
2022-11-17T02:51:20.936Z,95.20
2022-11-17T02:52:19.948Z,95.29
2022-11-17T02:53:19.907Z,95.40
2022-11-17T02:54:19.904Z,95.50
2022-11-17T02:55:19.892Z,95.50
2022-11-17T02:56:19.949Z,95.65
2022-11-17T02:57:19.876Z,95.75
2022-11-17T02:58:19.847Z,95.86
2022-11-17T02:59:19.839Z,95.95
2022-11-17T03:00:19.817Z,96.16
2022-11-17T03:01:19.877Z,96.16
2022-11-17T03:02:19.816Z,96.16
2022-11-17T03:03:19.786Z,96.06
2022-11-17T03:04:19.776Z,96.06
2022-11-17T03:05:19.756Z,96.16
2022-11-17T03:06:19.747Z,96.26
2022-11-17T03:07:19.783Z,96.26
2022-11-17T03:08:19.718Z,96.26
2022-11-17T03:09:19.709Z,96.26
2022-11-17T03:10:19.687Z,96.26
2022-11-17T03:11:19.678Z,96.37
2022-11-17T03:12:19.686Z,96.37
2022-11-17T03:13:19.644Z,96.47
2022-11-17T03:14:19.644Z,96.47
2022-11-17T03:15:19.625Z,96.47
2022-11-17T03:16:19.607Z,96.57
2022-11-17T03:17:19.618Z,96.47
2022-11-17T03:18:19.586Z,96.47
2022-11-17T03:19:19.568Z,96.47
2022-11-17T03:20:19.558Z,96.57
2022-11-17T03:21:19.524Z,96.57
2022-11-17T03:22:19.536Z,96.57
2022-11-17T03:23:19.506Z,96.57
2022-11-17T03:24:19.507Z,96.57
2022-11-17T03:25:19.495Z,96.67
2022-11-17T03:26:19.474Z,96.67
2022-11-17T03:27:19.455Z,96.78
2022-11-17T03:28:19.458Z,96.78
2022-11-17T03:29:19.424Z,96.78
2022-11-17T03:30:19.424Z,96.67
2022-11-17T03:31:19.410Z,96.78
2022-11-17T03:32:19.396Z,96.78
2022-11-17T03:33:19.385Z,96.78
2022-11-17T03:34:19.374Z,96.88
2022-11-17T03:35:19.352Z,96.88
2022-11-17T03:36:19.340Z,96.78
2022-11-17T03:37:19.316Z,96.78
2022-11-17T03:38:19.335Z,96.78
2022-11-17T03:39:19.295Z,96.88
2022-11-17T03:40:19.266Z,96.88
2022-11-17T03:41:19.266Z,96.88
2022-11-17T03:42:19.265Z,96.88
2022-11-17T03:43:19.256Z,96.88
2022-11-17T03:44:19.236Z,96.78
2022-11-17T03:45:19.215Z,96.88
2022-11-17T03:46:19.216Z,96.78
2022-11-17T03:47:19.186Z,96.78
2022-11-17T03:48:19.193Z,96.88
2022-11-17T03:49:19.164Z,96.88
2022-11-17T03:50:19.167Z,96.88
2022-11-17T03:51:19.139Z,96.78
2022-11-17T03:52:19.124Z,96.88
2022-11-17T03:53:19.133Z,96.88
2022-11-17T03:54:19.105Z,96.88
2022-11-17T03:55:19.095Z,96.98
2022-11-17T03:56:19.084Z,96.98
2022-11-17T03:57:19.055Z,97.08
2022-11-17T03:58:19.067Z,97.19
2022-11-17T03:59:19.037Z,97.29
2022-11-17T04:00:19.023Z,97.29
2022-11-17T04:01:19.068Z,97.19
2022-11-17T04:02:19.009Z,97.08
2022-11-17T04:03:18.998Z,96.98
2022-11-17T04:04:18.977Z,96.88
2022-11-17T04:05:18.956Z,96.88
2022-11-17T04:06:18.953Z,96.67
2022-11-17T04:07:19.016Z,96.67
2022-11-17T04:08:18.932Z,96.67
2022-11-17T04:09:24.200Z,96.57
2022-11-17T04:10:19.896Z,96.57
2022-11-17T04:11:18.877Z,96.57
2022-11-17T04:12:18.876Z,96.78
2022-11-17T04:13:18.874Z,96.78
2022-11-17T04:14:18.855Z,96.88
2022-11-17T04:15:18.835Z,96.88
2022-11-17T04:16:18.817Z,96.78
2022-11-17T04:17:18.807Z,96.47
2022-11-17T04:18:18.796Z,96.37
2022-11-17T04:19:18.797Z,96.26
2022-11-17T04:20:18.765Z,96.26
2022-11-17T04:21:18.757Z,96.16
2022-11-17T04:22:18.737Z,96.16
2022-11-17T04:23:18.728Z,96.06
2022-11-17T04:24:18.728Z,96.06
2022-11-17T04:25:18.697Z,95.95
2022-11-17T04:26:18.679Z,95.95
2022-11-17T04:27:18.677Z,95.95
2022-11-17T04:28:18.658Z,95.86
2022-11-17T04:29:18.668Z,95.75
2022-11-17T04:30:18.640Z,95.75
2022-11-17T04:31:18.616Z,95.75
2022-11-17T04:32:18.600Z,95.95
2022-11-17T04:33:18.596Z,96.20
2022-11-17T04:34:18.605Z,96.31
2022-11-17T04:35:18.584Z,96.31
2022-11-17T04:36:18.556Z,96.51
2022-11-17T04:37:18.552Z,96.62
2022-11-17T04:38:18.524Z,96.82
2022-11-17T04:39:18.531Z,96.92
2022-11-17T04:40:18.522Z,96.92
2022-11-17T04:41:18.493Z,97.03
2022-11-17T04:42:18.467Z,97.03
2022-11-17T04:43:18.468Z,97.03
2022-11-17T04:44:18.469Z,97.03
2022-11-17T04:45:18.439Z,96.92
2022-11-17T04:46:18.418Z,96.62
2022-11-17T04:47:18.409Z,96.51
2022-11-17T04:48:18.388Z,96.41
2022-11-17T04:49:18.410Z,96.31
2022-11-17T04:50:18.360Z,96.26
2022-11-17T04:51:18.373Z,95.95
2022-11-17T04:52:18.352Z,95.86
2022-11-17T04:53:18.341Z,95.86
2022-11-17T04:54:18.347Z,95.86
2022-11-17T04:55:18.309Z,95.75
2022-11-17T04:56:18.307Z,95.65
2022-11-17T04:57:18.284Z,95.44
2022-11-17T04:58:18.387Z,95.34
2022-11-17T04:59:18.282Z,95.14
2022-11-17T05:00:18.238Z,94.93
2022-11-17T05:01:18.235Z,94.83
2022-11-17T05:02:18.295Z,94.93
2022-11-17T05:03:18.209Z,94.93
2022-11-17T05:04:18.179Z,95.03
2022-11-17T05:05:18.190Z,95.03
2022-11-17T05:06:18.160Z,95.14
2022-11-17T05:07:18.215Z,95.24
2022-11-17T05:08:18.138Z,95.34
2022-11-17T05:09:18.127Z,95.34
2022-11-17T05:10:18.118Z,95.34
2022-11-17T05:11:18.215Z,95.44
2022-11-17T05:12:18.092Z,95.44
2022-11-17T05:13:18.070Z,95.54
2022-11-17T05:14:18.067Z,95.65
2022-11-17T05:15:18.062Z,95.54
2022-11-17T05:16:18.031Z,95.54
2022-11-17T05:17:18.027Z,95.65
2022-11-17T05:18:18.009Z,95.65
2022-11-17T05:19:18.017Z,95.86
2022-11-17T05:20:17.991Z,95.95
2022-11-17T05:21:17.971Z,96.06
2022-11-17T05:22:17.949Z,96.16
2022-11-17T05:23:17.941Z,96.16
2022-11-17T05:24:17.933Z,96.16
2022-11-17T05:25:17.931Z,96.16
2022-11-17T05:26:17.900Z,96.16
2022-11-17T05:27:17.890Z,96.16
2022-11-17T05:28:17.889Z,96.16
2022-11-17T05:29:17.861Z,96.06
2022-11-17T05:30:17.871Z,96.06
2022-11-17T05:31:17.841Z,95.95
2022-11-17T05:32:17.811Z,95.95
2022-11-17T05:33:17.813Z,95.95
2022-11-17T05:34:17.791Z,95.95
2022-11-17T05:35:17.801Z,95.95
2022-11-17T05:36:17.770Z,95.95
2022-11-17T05:37:17.769Z,96.10
2022-11-17T05:38:17.739Z,96.20
2022-11-17T05:39:17.730Z,96.31
2022-11-17T05:40:17.722Z,96.31
2022-11-17T05:41:17.713Z,96.41
2022-11-17T05:42:17.696Z,96.41
2022-11-17T05:43:17.682Z,96.41
2022-11-17T05:44:17.668Z,96.41
2022-11-17T05:45:17.701Z,96.51
2022-11-17T05:46:17.642Z,96.62
2022-11-17T05:47:18.298Z,96.62
2022-11-17T05:48:17.622Z,96.72
2022-11-17T05:49:17.602Z,96.82
2022-11-17T05:50:17.611Z,96.92
2022-11-17T05:51:17.570Z,97.13
2022-11-17T05:52:17.561Z,97.13
2022-11-17T05:53:23.280Z,97.23
2022-11-17T05:54:18.342Z,97.23
2022-11-17T05:55:18.782Z,97.23
2022-11-17T05:56:20.687Z,97.13
2022-11-17T05:57:17.491Z,96.92
2022-11-17T05:58:17.481Z,96.92
2022-11-17T05:59:17.476Z,96.72
2022-11-17T06:00:17.450Z,96.62
2022-11-17T06:01:17.512Z,96.57
2022-11-17T06:02:17.433Z,96.47
2022-11-17T06:03:17.422Z,96.47
2022-11-17T06:04:17.448Z,96.47
2022-11-17T06:05:20.434Z,96.47
2022-11-17T06:06:17.403Z,96.37
2022-11-17T06:07:17.559Z,96.37
2022-11-17T06:08:17.363Z,96.37
2022-11-17T06:09:17.342Z,96.37
2022-11-17T06:10:17.312Z,96.26
2022-11-17T06:11:17.330Z,96.26
2022-11-17T06:12:17.302Z,96.26
2022-11-17T06:13:17.294Z,96.16
2022-11-17T06:14:17.271Z,96.06
2022-11-17T06:15:17.266Z,96.06
2022-11-17T06:16:17.253Z,96.06
2022-11-17T06:17:21.889Z,95.95
2022-11-17T06:18:18.232Z,95.86
2022-11-17T06:19:17.210Z,95.54
2022-11-17T06:20:17.192Z,95.44
2022-11-17T06:21:17.192Z,95.44
2022-11-17T06:22:17.170Z,95.44
2022-11-17T06:23:17.152Z,95.44
2022-11-17T06:24:17.142Z,95.40
2022-11-17T06:25:17.132Z,95.40
2022-11-17T06:26:17.141Z,95.40
2022-11-17T06:27:17.104Z,95.29
2022-11-17T06:28:17.089Z,95.20
2022-11-17T06:29:17.084Z,95.29
2022-11-17T06:30:17.053Z,95.09
2022-11-17T06:31:17.050Z,95.09
2022-11-17T06:32:17.042Z,95.20
2022-11-17T06:33:17.022Z,95.09
2022-11-17T06:34:17.013Z,95.09
2022-11-17T06:35:17.011Z,94.99
2022-11-17T06:36:16.991Z,94.99
2022-11-17T06:37:16.999Z,94.99
2022-11-17T06:38:16.954Z,95.09
2022-11-17T06:39:16.952Z,95.09
2022-11-17T06:40:16.934Z,95.20
2022-11-17T06:41:16.979Z,95.29
2022-11-17T06:42:16.922Z,95.40
2022-11-17T06:43:16.895Z,95.40
2022-11-17T06:44:16.884Z,95.40
2022-11-17T06:45:16.873Z,95.40
2022-11-17T06:46:16.843Z,95.40
2022-11-17T06:47:16.863Z,95.50
2022-11-17T06:48:16.818Z,95.50
2022-11-17T06:49:16.827Z,95.61
2022-11-17T06:50:16.822Z,95.61
2022-11-17T06:51:16.793Z,95.61
2022-11-17T06:52:16.793Z,95.61
2022-11-17T06:53:16.767Z,95.61
2022-11-17T06:54:16.752Z,95.70
2022-11-17T06:55:16.744Z,95.81
2022-11-17T06:56:16.714Z,95.91
2022-11-17T06:57:16.732Z,95.91
2022-11-17T06:58:16.685Z,96.01
2022-11-17T06:59:16.682Z,96.01
2022-11-17T07:00:16.664Z,96.01
2022-11-17T07:01:16.696Z,96.01
2022-11-17T07:02:16.675Z,95.91
2022-11-17T07:03:16.635Z,95.91
2022-11-17T07:04:16.620Z,95.70
2022-11-17T07:05:16.607Z,95.70
2022-11-17T07:06:16.586Z,95.61
2022-11-17T07:07:16.643Z,95.40
2022-11-17T07:08:16.547Z,95.40
2022-11-17T07:09:16.553Z,95.50
2022-11-17T07:10:16.535Z,95.61
2022-11-17T07:11:16.515Z,95.81
2022-11-17T07:12:16.524Z,95.81
2022-11-17T07:13:16.503Z,95.81
2022-11-17T07:14:16.496Z,95.81
2022-11-17T07:15:16.471Z,95.91
2022-11-17T07:16:22.841Z,95.91
2022-11-17T07:17:17.482Z,95.91
2022-11-17T07:18:16.427Z,96.01
2022-11-17T07:19:16.423Z,96.01
2022-11-17T07:20:16.405Z,96.01
2022-11-17T07:21:16.383Z,96.01
2022-11-17T07:22:16.402Z,96.12
2022-11-17T07:23:16.373Z,96.12
2022-11-17T07:24:16.363Z,96.12
2022-11-17T07:25:22.144Z,96.12
2022-11-17T07:26:17.316Z,96.22
2022-11-17T07:27:16.332Z,96.32
2022-11-17T07:28:16.298Z,96.42
2022-11-17T07:29:16.294Z,96.53
2022-11-17T07:30:16.282Z,96.53
2022-11-17T07:31:16.263Z,96.63
2022-11-17T07:32:16.246Z,96.73
2022-11-17T07:33:16.245Z,96.83
2022-11-17T07:34:16.225Z,96.94
2022-11-17T07:35:16.238Z,97.04
2022-11-17T07:36:16.189Z,97.14
2022-11-17T07:37:16.186Z,97.14
2022-11-17T07:38:16.197Z,97.14
2022-11-17T07:39:21.227Z,97.04
2022-11-17T07:40:17.136Z,97.04
2022-11-17T07:41:16.136Z,97.04
2022-11-17T07:42:16.116Z,96.94
2022-11-17T07:43:16.123Z,96.94
2022-11-17T07:44:16.086Z,97.04
2022-11-17T07:45:16.087Z,97.04
2022-11-17T07:46:16.067Z,97.04
2022-11-17T07:47:16.067Z,97.04
2022-11-17T07:48:16.048Z,97.24
2022-11-17T07:49:16.016Z,97.24
2022-11-17T07:50:16.007Z,97.24
2022-11-17T07:51:16.009Z,97.34
2022-11-17T07:52:15.987Z,97.34
2022-11-17T07:53:15.994Z,97.45
2022-11-17T07:54:15.963Z,97.55
2022-11-17T07:55:15.949Z,97.55
2022-11-17T07:56:15.940Z,97.55
2022-11-17T07:57:15.924Z,97.55
2022-11-17T07:58:15.915Z,97.55
2022-11-17T07:59:21.044Z,97.65
2022-11-17T08:00:16.877Z,97.65
2022-11-17T08:01:15.974Z,97.65
2022-11-17T08:02:15.856Z,97.65
2022-11-17T08:03:15.897Z,97.65
2022-11-17T08:04:15.826Z,97.65
2022-11-17T08:05:15.816Z,97.75
2022-11-17T08:06:15.796Z,97.75
2022-11-17T08:07:15.845Z,97.86
2022-11-17T08:08:15.787Z,97.86
2022-11-17T08:09:15.767Z,97.96
2022-11-17T08:10:15.748Z,97.96
2022-11-17T08:11:15.735Z,97.96
2022-11-17T08:12:22.779Z,97.96
2022-11-17T08:13:15.729Z,98.07
2022-11-17T08:14:15.700Z,98.07
2022-11-17T08:15:15.690Z,98.16
2022-11-17T08:16:15.670Z,98.16
2022-11-17T08:17:15.648Z,98.16
2022-11-17T08:18:15.660Z,98.27
2022-11-17T08:19:15.633Z,98.27
2022-11-17T08:20:15.619Z,98.27
2022-11-17T08:21:15.622Z,98.37
2022-11-17T08:22:15.591Z,98.37
2022-11-17T08:23:15.600Z,98.33
2022-11-17T08:24:15.577Z,98.33
2022-11-17T08:25:15.561Z,98.33
2022-11-17T08:26:15.538Z,98.33
2022-11-17T08:27:15.540Z,98.22
2022-11-17T08:28:15.549Z,98.33
2022-11-17T08:29:15.511Z,98.22
2022-11-17T08:30:15.490Z,98.22
2022-11-17T08:31:15.479Z,98.22
2022-11-17T08:32:15.459Z,98.12
2022-11-17T08:33:15.489Z,98.12
2022-11-17T08:34:15.431Z,98.02
2022-11-17T08:35:15.420Z,98.02
2022-11-17T08:36:15.413Z,98.02
2022-11-17T08:37:15.399Z,98.02
2022-11-17T08:38:15.407Z,97.91
2022-11-17T08:39:15.371Z,97.91
2022-11-17T08:40:15.361Z,97.91
2022-11-17T08:41:15.342Z,97.81
2022-11-17T08:42:15.330Z,97.81
2022-11-17T08:43:15.327Z,97.81
2022-11-17T08:44:15.322Z,97.71
2022-11-17T08:45:15.289Z,97.66
2022-11-17T08:46:15.280Z,97.56
2022-11-17T08:47:15.268Z,97.56
2022-11-17T08:48:15.270Z,97.46
2022-11-17T08:49:15.241Z,97.46
2022-11-17T08:50:15.229Z,97.46
2022-11-17T08:51:15.214Z,97.46
2022-11-17T08:52:15.199Z,97.46
2022-11-17T08:53:15.204Z,97.46
2022-11-17T08:54:15.172Z,97.46
2022-11-17T08:55:15.228Z,97.46
2022-11-17T08:56:15.176Z,97.46
2022-11-17T08:57:15.201Z,97.36
2022-11-17T08:58:15.131Z,97.36
2022-11-17T08:59:15.109Z,97.36
2022-11-17T09:00:15.098Z,97.36
2022-11-17T09:01:15.151Z,97.36
2022-11-17T09:02:15.070Z,97.25
2022-11-17T09:03:15.067Z,97.25
2022-11-17T09:04:15.042Z,97.25
2022-11-17T09:05:15.028Z,97.25
2022-11-17T09:06:15.025Z,97.21
2022-11-17T09:07:15.138Z,97.21
2022-11-17T09:08:45.026Z,97.21
2022-11-17T09:09:16.055Z,97.11
2022-11-17T09:10:14.966Z,97.11
2022-11-17T09:11:14.950Z,97.11
2022-11-17T09:12:14.941Z,97.11
2022-11-17T09:13:18.597Z,97.11
2022-11-17T09:14:14.930Z,97.11
2022-11-17T09:15:14.915Z,97.11
2022-11-17T09:16:14.895Z,97.11
2022-11-17T09:17:14.869Z,97.11
2022-11-17T09:18:14.880Z,97.11
2022-11-17T09:19:14.840Z,97.21
2022-11-17T09:20:14.831Z,97.11
2022-11-17T09:21:14.821Z,97.11
2022-11-17T09:22:14.811Z,97.11
2022-11-17T09:23:14.810Z,97.11
2022-11-17T09:24:14.781Z,97.11
2022-11-17T09:25:14.770Z,97.21
2022-11-17T09:26:14.770Z,97.31
2022-11-17T09:27:14.742Z,97.41
2022-11-17T09:28:14.861Z,97.41
2022-11-17T09:29:14.710Z,97.41
2022-11-17T09:30:14.701Z,97.41
2022-11-17T09:31:14.788Z,97.41
2022-11-17T09:32:14.680Z,97.31
2022-11-17T09:33:14.672Z,97.31
2022-11-17T09:34:14.684Z,97.37
2022-11-17T09:35:14.630Z,97.41
2022-11-17T09:36:14.622Z,97.47
2022-11-17T09:37:14.639Z,97.67
2022-11-17T09:38:14.611Z,97.88
2022-11-17T09:39:14.572Z,97.88
2022-11-17T09:40:14.572Z,97.98
2022-11-17T09:41:14.549Z,97.98
2022-11-17T09:42:14.542Z,98.08
2022-11-17T09:43:14.543Z,98.08
2022-11-17T09:44:14.521Z,98.08
2022-11-17T09:45:14.517Z,98.08
2022-11-17T09:46:14.503Z,98.08
2022-11-17T09:47:14.480Z,98.08
2022-11-17T09:48:39.499Z,98.19
2022-11-17T09:49:15.463Z,98.19
2022-11-17T09:50:14.446Z,98.19
2022-11-17T09:51:14.419Z,98.19
2022-11-17T09:52:14.409Z,98.19
2022-11-17T09:53:14.402Z,98.19
2022-11-17T09:54:14.416Z,98.08
2022-11-17T09:55:14.362Z,98.08
2022-11-17T09:56:14.362Z,98.04
2022-11-17T09:57:14.351Z,98.04
2022-11-17T09:58:14.356Z,98.04
2022-11-17T09:59:14.354Z,97.83
2022-11-17T10:00:14.302Z,97.74
2022-11-17T10:01:14.284Z,97.63
2022-11-17T10:02:14.332Z,97.53
2022-11-17T10:03:14.264Z,97.33
2022-11-17T10:04:14.322Z,97.22
2022-11-17T10:05:14.243Z,97.12
2022-11-17T10:06:14.250Z,97.02
2022-11-17T10:07:14.275Z,96.81
2022-11-17T10:08:14.204Z,96.61
2022-11-17T10:09:14.199Z,96.20
2022-11-17T10:10:14.184Z,95.89
2022-11-17T10:11:14.162Z,95.38
2022-11-17T10:12:14.153Z,94.97
2022-11-17T10:13:14.133Z,94.77
2022-11-17T10:14:14.145Z,94.67
2022-11-17T10:15:14.104Z,94.67
2022-11-17T10:16:14.104Z,94.26
2022-11-17T10:17:14.076Z,93.85
2022-11-17T10:18:14.072Z,93.33
2022-11-17T10:19:14.072Z,92.93
2022-11-17T10:20:14.054Z,92.83
2022-11-17T10:21:14.024Z,92.72
2022-11-17T10:22:14.023Z,92.27
2022-11-17T10:23:14.010Z,91.76
2022-11-17T10:24:14.013Z,91.66
2022-11-17T10:25:13.975Z,91.76
2022-11-17T10:26:13.964Z,91.96
2022-11-17T10:27:13.945Z,91.86
2022-11-17T10:28:13.945Z,91.76
2022-11-17T10:29:13.943Z,91.76
2022-11-17T10:30:13.922Z,91.86
2022-11-17T10:31:13.899Z,91.46
2022-11-17T10:32:13.891Z,90.74
2022-11-17T10:33:13.866Z,90.64
2022-11-17T10:34:13.868Z,90.33
2022-11-17T10:35:13.855Z,90.43
2022-11-17T10:36:13.834Z,90.64
2022-11-17T10:37:13.814Z,90.84
2022-11-17T10:38:13.816Z,91.05
2022-11-17T10:39:17.704Z,91.25
2022-11-17T10:40:13.802Z,91.76
2022-11-17T10:41:13.766Z,91.86
2022-11-17T10:42:13.754Z,91.46
2022-11-17T10:43:13.740Z,91.46
2022-11-17T10:44:13.738Z,91.56
2022-11-17T10:45:13.725Z,91.76
2022-11-17T10:46:13.701Z,91.76
2022-11-17T10:47:13.695Z,91.86
2022-11-17T10:48:13.675Z,91.86
2022-11-17T10:49:13.655Z,91.86
2022-11-17T10:50:13.675Z,91.96
2022-11-17T10:51:13.626Z,92.07
2022-11-17T10:52:13.627Z,91.96
2022-11-17T10:53:13.605Z,91.80
2022-11-17T10:54:13.603Z,92.01
2022-11-17T10:55:13.614Z,91.91
2022-11-17T10:56:13.593Z,92.01
2022-11-17T10:57:13.556Z,92.21
2022-11-17T10:58:13.546Z,92.52
2022-11-17T10:59:13.527Z,92.62
2022-11-17T11:00:13.543Z,92.72
2022-11-17T11:01:13.579Z,93.03
2022-11-17T11:02:13.494Z,93.24
2022-11-17T11:03:13.475Z,93.44
2022-11-17T11:04:13.475Z,93.44
2022-11-17T11:05:13.475Z,93.33
2022-11-17T11:06:17.511Z,93.13
2022-11-17T11:07:13.480Z,92.93
2022-11-17T11:08:13.406Z,92.83
2022-11-17T11:09:13.397Z,92.83
2022-11-17T11:10:13.424Z,92.62
2022-11-17T11:11:13.366Z,92.72
2022-11-17T11:12:13.438Z,92.83
2022-11-17T11:13:13.346Z,92.93
2022-11-17T11:14:13.345Z,93.03
2022-11-17T11:15:13.340Z,93.44
2022-11-17T11:16:13.309Z,93.54
2022-11-17T11:17:13.307Z,93.65
2022-11-17T11:18:13.285Z,93.74
2022-11-17T11:19:13.277Z,93.74
2022-11-17T11:20:13.277Z,93.74
2022-11-17T11:21:13.237Z,93.85
2022-11-17T11:22:16.977Z,93.85
2022-11-17T11:23:14.216Z,94.06
2022-11-17T11:24:13.198Z,94.06
2022-11-17T11:25:13.213Z,94.06
2022-11-17T11:26:13.196Z,94.06
2022-11-17T11:27:13.156Z,94.06
2022-11-17T11:28:13.150Z,93.95
2022-11-17T11:29:13.413Z,93.74
2022-11-17T11:30:13.146Z,93.54
2022-11-17T11:31:13.107Z,93.44
2022-11-17T11:32:13.098Z,93.54
2022-11-17T11:33:13.080Z,93.54
2022-11-17T11:34:13.059Z,93.44
2022-11-17T11:35:17.188Z,93.24
2022-11-17T11:36:13.052Z,93.13
2022-11-17T11:37:13.043Z,93.13
2022-11-17T11:38:13.017Z,93.13
2022-11-17T11:39:13.360Z,93.13
2022-11-17T11:40:13.027Z,93.13
2022-11-17T11:41:12.977Z,93.03
2022-11-17T11:42:12.972Z,92.93
2022-11-17T11:43:12.947Z,92.93
2022-11-17T11:44:12.947Z,92.83
2022-11-17T11:45:12.928Z,92.62
2022-11-17T11:46:12.940Z,92.21
2022-11-17T11:47:12.897Z,91.91
2022-11-17T11:48:12.889Z,91.25
2022-11-17T11:49:12.868Z,91.05
2022-11-17T11:50:12.866Z,90.94
2022-11-17T11:51:12.858Z,90.33
2022-11-17T11:52:12.837Z,88.90
2022-11-17T11:53:12.823Z,87.37
2022-11-17T11:54:13.181Z,87.57
2022-11-17T11:55:12.797Z,87.67
2022-11-17T11:56:12.804Z,87.88
2022-11-17T11:57:12.769Z,87.67
2022-11-17T11:58:12.756Z,87.37
2022-11-17T11:59:12.738Z,87.77
2022-11-17T12:00:12.784Z,88.18
2022-11-17T12:01:12.730Z,88.18
2022-11-17T12:02:12.781Z,88.39
2022-11-17T12:03:12.720Z,88.49
2022-11-17T12:04:13.086Z,87.88
2022-11-17T12:05:12.648Z,87.06
2022-11-17T12:06:12.679Z,87.37
2022-11-17T12:07:12.672Z,87.53
2022-11-17T12:08:12.624Z,87.32
2022-11-17T12:09:12.608Z,87.67
2022-11-17T12:10:12.726Z,87.73
2022-11-17T12:11:12.599Z,87.94
2022-11-17T12:12:12.569Z,88.14
2022-11-17T12:13:12.558Z,88.35
2022-11-17T12:14:12.861Z,88.45
2022-11-17T12:15:12.529Z,88.24
2022-11-17T12:16:12.538Z,86.61
2022-11-17T12:17:12.498Z,86.51
2022-11-17T12:18:12.488Z,86.71
2022-11-17T12:19:12.480Z,87.43
2022-11-17T12:20:12.468Z,87.94
2022-11-17T12:21:12.465Z,88.14
2022-11-17T12:22:12.438Z,88.35
2022-11-17T12:23:12.428Z,88.55
2022-11-17T12:24:12.798Z,88.76
2022-11-17T12:25:12.409Z,88.96
2022-11-17T12:26:12.411Z,89.17
2022-11-17T12:27:12.486Z,89.37
2022-11-17T12:28:12.389Z,89.67
2022-11-17T12:29:12.350Z,89.78
2022-11-17T12:30:12.344Z,89.88
2022-11-17T12:31:12.340Z,89.98
2022-11-17T12:32:12.310Z,90.08
2022-11-17T12:33:12.288Z,90.19
2022-11-17T12:34:12.423Z,90.49
2022-11-17T12:35:12.290Z,90.59
2022-11-17T12:36:12.302Z,90.70
2022-11-17T12:37:12.247Z,90.70
2022-11-17T12:38:12.228Z,90.80
2022-11-17T12:39:12.234Z,90.90
2022-11-17T12:40:12.242Z,90.90
2022-11-17T12:41:12.209Z,91.11
2022-11-17T12:42:12.179Z,91.20
2022-11-17T12:43:12.157Z,91.11
2022-11-17T12:44:12.513Z,91.11
2022-11-17T12:45:12.141Z,91.00
2022-11-17T12:46:12.310Z,90.90
2022-11-17T12:47:12.112Z,90.90
2022-11-17T12:48:33.068Z,90.90
2022-11-17T12:49:13.104Z,90.80
2022-11-17T12:50:12.070Z,90.70
2022-11-17T12:51:12.083Z,90.39
2022-11-17T12:52:12.029Z,90.08
2022-11-17T12:53:12.035Z,89.88